createdAt,value
2023-01-31T00:01:35.153Z,90515.72
2023-01-31T00:04:05.040Z,90516.34
2023-01-31T00:06:40.761Z,90501.25
2023-01-31T00:09:09.506Z,90518.63
2023-01-31T00:11:37.502Z,90510.47
2023-01-31T00:14:06.608Z,90502.63
2023-01-31T00:16:33.945Z,90500.66
2023-01-31T00:19:00.749Z,90512.44
2023-01-31T00:21:29.193Z,90497.50
2023-01-31T00:23:57.093Z,90500.94
2023-01-31T00:26:24.952Z,90510.16
2023-01-31T00:28:54.122Z,90505.03
2023-01-31T00:31:22.615Z,90509.41
2023-01-31T00:33:50.927Z,90504.59
2023-01-31T00:36:20.780Z,90503.22
2023-01-31T00:38:52.752Z,90519.06
2023-01-31T00:41:23.777Z,90503.81
2023-01-31T00:43:51.662Z,90494.31
2023-01-31T00:46:20.931Z,90506.97
2023-01-31T00:48:48.469Z,90507.91
2023-01-31T00:51:15.412Z,90507.59
2023-01-31T00:53:42.426Z,90512.72
2023-01-31T00:56:11.731Z,90513.63
2023-01-31T00:58:42.560Z,90508.63
2023-01-31T01:01:38.781Z,90524.97
2023-01-31T01:04:06.257Z,90502.91
2023-01-31T01:06:33.926Z,90509.72
2023-01-31T01:09:01.310Z,90520.91
2023-01-31T01:11:30.561Z,90505.44
2023-01-31T01:13:58.665Z,90512.13
2023-01-31T01:16:33.247Z,90506.53
2023-01-31T01:19:03.005Z,90518.56
2023-01-31T01:21:31.292Z,90509.63
2023-01-31T01:24:00.611Z,90515.16
2023-01-31T01:26:31.016Z,90510.97
2023-01-31T01:29:00.325Z,90524.66
2023-01-31T01:31:31.033Z,90528.66
2023-01-31T01:34:04.205Z,90523.72
2023-01-31T01:36:34.612Z,90533.66
2023-01-31T01:39:01.606Z,90533.00
2023-01-31T01:41:28.714Z,90534.94
2023-01-31T01:44:00.397Z,90526.84
2023-01-31T01:46:29.307Z,90534.09
2023-01-31T01:49:02.964Z,90532.66
2023-01-31T01:51:32.718Z,90517.91
2023-01-31T01:54:05.014Z,90532.44
2023-01-31T01:56:39.379Z,90537.16
2023-01-31T01:59:31.970Z,90539.06
2023-01-31T02:01:58.755Z,90529.94
2023-01-31T02:04:30.859Z,90542.28
2023-01-31T02:06:58.100Z,90543.63
2023-01-31T02:09:40.082Z,90539.31
2023-01-31T02:12:07.108Z,90541.66
2023-01-31T02:14:34.235Z,90552.22
2023-01-31T02:17:01.193Z,90560.22
2023-01-31T02:19:53.319Z,90559.72
2023-01-31T02:22:28.975Z,90549.91
2023-01-31T02:25:26.000Z,90563.22
2023-01-31T02:28:04.915Z,90565.81
2023-01-31T02:31:02.678Z,90561.09
2023-01-31T02:34:00.755Z,90571.22
2023-01-31T02:37:02.761Z,90579.59
2023-01-31T02:39:45.717Z,90563.94
2023-01-31T02:42:26.250Z,90580.47
2023-01-31T02:45:01.824Z,90580.34
2023-01-31T02:47:37.437Z,90579.41
2023-01-31T02:50:13.007Z,90570.03
2023-01-31T02:53:08.538Z,90577.25
2023-01-31T02:56:08.069Z,90558.16
2023-01-31T02:58:38.642Z,90558.44
2023-01-31T03:01:07.184Z,90559.03
2023-01-31T03:03:38.135Z,90559.31
2023-01-31T03:06:11.030Z,90551.88
2023-01-31T03:08:43.901Z,90547.16
2023-01-31T03:11:11.239Z,90538.06
2023-01-31T03:13:48.381Z,90531.41
2023-01-31T03:16:36.555Z,90543.81
2023-01-31T03:19:14.438Z,90530.22
2023-01-31T03:22:00.981Z,90538.78
2023-01-31T03:24:30.377Z,90535.28
2023-01-31T03:27:01.367Z,90520.06
2023-01-31T03:29:31.105Z,90540.16
2023-01-31T03:32:05.007Z,90547.63
2023-01-31T03:34:32.649Z,90530.03
2023-01-31T03:37:26.414Z,90540.66
2023-01-31T03:40:17.649Z,90534.50
2023-01-31T03:43:05.016Z,90528.97
2023-01-31T03:45:40.560Z,90532.47
2023-01-31T03:48:14.413Z,90535.13
2023-01-31T03:50:45.923Z,90535.53
2023-01-31T03:53:39.800Z,90531.16
2023-01-31T03:56:43.582Z,90528.88
2023-01-31T03:59:22.886Z,90533.22
2023-01-31T04:01:53.529Z,90523.38
2023-01-31T04:04:37.210Z,90522.28
2023-01-31T04:07:05.274Z,90517.31
2023-01-31T04:09:32.961Z,90510.66
2023-01-31T04:12:01.791Z,90523.56
2023-01-31T04:14:29.294Z,90514.50
2023-01-31T04:16:56.269Z,90516.81
2023-01-31T04:19:23.131Z,90508.75
2023-01-31T04:21:49.894Z,90504.56
2023-01-31T04:24:16.636Z,90511.59
2023-01-31T04:26:44.351Z,90515.56
2023-01-31T04:29:11.164Z,90516.00
2023-01-31T04:31:40.353Z,90522.47
2023-01-31T04:34:08.177Z,90525.22
2023-01-31T04:36:34.947Z,90522.78
2023-01-31T04:39:01.671Z,90517.31
2023-01-31T04:41:28.450Z,90525.69
2023-01-31T04:43:55.290Z,90526.88
2023-01-31T04:46:22.080Z,90528.81
2023-01-31T04:48:48.745Z,90518.00
2023-01-31T04:51:15.405Z,90524.19
2023-01-31T04:53:44.111Z,90531.19
2023-01-31T04:56:11.285Z,90532.97
2023-01-31T04:58:38.036Z,90529.94
2023-01-31T05:01:04.861Z,90537.84
2023-01-31T05:03:31.857Z,90549.03
2023-01-31T05:05:58.556Z,90549.91
2023-01-31T05:08:25.291Z,90553.84
2023-01-31T05:10:58.450Z,90542.00
2023-01-31T05:13:25.687Z,90534.47
2023-01-31T05:15:53.069Z,90544.19
2023-01-31T05:18:19.936Z,90553.69
2023-01-31T05:20:50.122Z,90532.72
2023-01-31T05:23:17.685Z,90547.38
2023-01-31T05:25:45.126Z,90534.47
2023-01-31T05:28:13.307Z,90545.50
2023-01-31T05:30:40.400Z,90546.19
2023-01-31T05:33:07.333Z,90562.47
2023-01-31T05:35:34.563Z,90558.25
2023-01-31T05:38:02.180Z,90571.28
2023-01-31T05:40:28.946Z,90573.13
2023-01-31T05:43:03.132Z,90578.97
2023-01-31T05:45:31.122Z,90575.72
2023-01-31T05:47:58.806Z,90567.56
2023-01-31T05:50:25.790Z,90577.50
2023-01-31T05:52:56.486Z,90568.91
2023-01-31T05:55:23.418Z,90575.09
2023-01-31T05:57:50.159Z,90578.13
2023-01-31T06:00:17.240Z,90574.63
2023-01-31T06:02:44.310Z,90588.53
2023-01-31T06:05:11.833Z,90592.13
2023-01-31T06:07:41.353Z,90569.00
2023-01-31T06:10:10.853Z,90592.53
2023-01-31T06:12:37.563Z,90598.91
2023-01-31T06:15:05.124Z,90601.19
2023-01-31T06:17:31.845Z,90596.53
2023-01-31T06:19:59.127Z,90599.88
2023-01-31T06:22:25.990Z,90605.41
2023-01-31T06:24:53.010Z,90607.72
2023-01-31T06:27:19.853Z,90621.63
2023-01-31T06:29:46.510Z,90628.88
2023-01-31T06:32:13.239Z,90618.72
2023-01-31T06:34:39.914Z,90609.59
2023-01-31T06:37:09.805Z,90614.38
2023-01-31T06:39:36.862Z,90628.13
2023-01-31T06:42:04.174Z,90630.97
2023-01-31T06:44:33.192Z,90647.78
2023-01-31T06:47:01.846Z,90640.63
2023-01-31T06:49:28.545Z,90628.22
2023-01-31T06:51:55.604Z,90634.75
2023-01-31T06:54:22.617Z,90645.63
2023-01-31T06:56:49.325Z,90659.69
2023-01-31T06:59:15.997Z,90657.69
2023-01-31T07:01:42.797Z,90654.47
2023-01-31T07:04:09.663Z,90651.06
2023-01-31T07:06:36.459Z,90663.75
2023-01-31T07:09:03.201Z,90673.97
2023-01-31T07:11:30.200Z,90658.81
2023-01-31T07:13:57.228Z,90667.31
2023-01-31T07:16:25.596Z,90671.91
2023-01-31T07:18:53.472Z,90662.84
2023-01-31T07:21:20.708Z,90672.50
2023-01-31T07:23:47.474Z,90651.63
2023-01-31T07:26:14.345Z,90660.78
2023-01-31T07:28:41.235Z,90676.13
2023-01-31T07:31:13.027Z,90674.84
2023-01-31T07:33:40.620Z,90688.97
2023-01-31T07:36:08.353Z,90682.97
2023-01-31T07:38:35.527Z,90679.38
2023-01-31T07:41:04.077Z,90681.34
2023-01-31T07:43:32.329Z,90674.16
2023-01-31T07:45:59.108Z,90673.38
2023-01-31T07:48:26.002Z,90668.41
2023-01-31T07:50:58.616Z,90677.44
2023-01-31T07:53:27.423Z,90675.34
2023-01-31T07:55:55.708Z,90674.50
2023-01-31T07:58:22.519Z,90685.75
2023-01-31T08:01:07.832Z,90680.22
2023-01-31T08:03:34.931Z,90690.47
2023-01-31T08:06:09.313Z,90689.41
2023-01-31T08:08:37.702Z,90692.78
2023-01-31T08:11:07.347Z,90676.66
2023-01-31T08:13:38.241Z,90677.06
2023-01-31T08:16:07.134Z,90672.25
2023-01-31T08:18:34.196Z,90677.47
2023-01-31T08:21:01.006Z,90682.44
2023-01-31T08:23:29.262Z,90690.53
2023-01-31T08:26:04.055Z,90691.66
2023-01-31T08:28:31.896Z,90687.16
2023-01-31T08:31:08.113Z,90703.09
2023-01-31T08:33:37.338Z,90705.31
2023-01-31T08:36:12.656Z,90701.59
2023-01-31T08:38:39.548Z,90726.78
2023-01-31T08:41:06.531Z,90712.38
2023-01-31T08:43:42.279Z,90720.34
2023-01-31T08:46:19.549Z,90706.13
2023-01-31T08:48:46.265Z,90714.13
2023-01-31T08:51:13.827Z,90713.03
2023-01-31T08:53:44.759Z,90721.13
2023-01-31T08:56:13.400Z,90713.63
2023-01-31T08:58:42.185Z,90724.19
2023-01-31T09:01:16.241Z,90723.13
2023-01-31T09:03:45.132Z,90723.78
2023-01-31T09:06:21.730Z,90735.00
2023-01-31T09:08:48.679Z,90738.00
2023-01-31T09:11:19.065Z,90729.03
2023-01-31T09:13:47.695Z,90737.81
2023-01-31T09:16:14.959Z,90737.81
2023-01-31T09:18:42.727Z,90734.03
2023-01-31T09:21:15.383Z,90731.53
2023-01-31T09:23:42.921Z,90726.16
2023-01-31T09:26:11.400Z,90720.88
2023-01-31T09:28:38.778Z,90733.81
2023-01-31T09:31:12.272Z,90731.44
2023-01-31T09:33:39.434Z,90731.00
2023-01-31T09:36:09.158Z,90744.47
2023-01-31T09:38:36.531Z,90736.59
2023-01-31T09:41:09.978Z,90737.66
2023-01-31T09:43:41.600Z,90725.78
2023-01-31T09:46:15.732Z,90715.41
2023-01-31T09:48:48.025Z,90706.50
2023-01-31T09:51:16.627Z,90710.66
2023-01-31T09:53:45.074Z,90703.69
2023-01-31T09:56:17.866Z,90708.50
2023-01-31T09:59:10.230Z,90718.75
2023-01-31T10:02:10.177Z,90714.44
2023-01-31T10:04:42.833Z,90710.38
2023-01-31T10:07:32.335Z,90707.22
2023-01-31T10:10:02.143Z,90717.84
2023-01-31T10:12:51.510Z,90705.72
2023-01-31T10:15:46.570Z,90708.50
2023-01-31T10:18:42.675Z,90684.50
2023-01-31T10:21:15.242Z,90697.00
2023-01-31T10:23:50.962Z,90689.00
2023-01-31T10:26:27.311Z,90691.63
2023-01-31T10:29:06.691Z,90686.38
2023-01-31T10:31:44.326Z,90683.19
2023-01-31T10:34:17.957Z,90686.56
2023-01-31T10:36:56.320Z,90688.22
2023-01-31T10:39:54.644Z,90688.47
2023-01-31T10:42:33.053Z,90685.72
2023-01-31T10:45:02.701Z,90706.91
2023-01-31T10:47:38.362Z,90695.75
2023-01-31T10:50:39.558Z,90701.28
2023-01-31T10:53:26.501Z,90682.88
2023-01-31T10:56:03.442Z,90697.16
2023-01-31T10:58:30.504Z,90695.69
2023-01-31T11:00:58.426Z,90684.50
2023-01-31T11:03:25.475Z,90695.72
2023-01-31T11:05:58.236Z,90706.09
2023-01-31T11:08:42.460Z,90702.84
2023-01-31T11:11:18.170Z,90704.63
2023-01-31T11:14:01.204Z,90702.78
2023-01-31T11:16:40.159Z,90699.56
2023-01-31T11:19:20.997Z,90689.91
2023-01-31T11:21:52.807Z,90693.56
2023-01-31T11:24:26.465Z,90693.84
2023-01-31T11:26:58.094Z,90700.47
2023-01-31T11:29:32.120Z,90694.41
2023-01-31T11:32:01.940Z,90700.47
2023-01-31T11:34:30.996Z,90703.00
2023-01-31T11:37:15.219Z,90692.44
2023-01-31T11:39:42.103Z,90693.16
2023-01-31T11:42:14.576Z,90694.56
2023-01-31T11:45:00.619Z,90707.25
2023-01-31T11:47:44.397Z,90704.53
2023-01-31T11:50:21.839Z,90709.81
2023-01-31T11:52:59.012Z,90692.56
2023-01-31T11:55:27.760Z,90705.13
2023-01-31T11:57:57.974Z,90701.88
2023-01-31T12:00:28.920Z,90707.88
2023-01-31T12:03:09.123Z,90712.53
2023-01-31T12:05:45.117Z,90704.09
2023-01-31T12:08:36.279Z,90712.38
2023-01-31T12:11:21.376Z,90698.38
2023-01-31T12:13:53.126Z,90714.88
2023-01-31T12:16:24.531Z,90711.75
2023-01-31T12:19:07.659Z,90717.47
2023-01-31T12:22:00.764Z,90714.34
2023-01-31T12:24:49.104Z,90722.03
2023-01-31T12:27:40.620Z,90725.28
2023-01-31T12:30:22.034Z,90729.75
2023-01-31T12:33:06.577Z,90723.53
2023-01-31T12:35:52.680Z,90725.19
2023-01-31T12:38:34.081Z,90719.97
2023-01-31T12:41:12.487Z,90715.41
2023-01-31T12:43:51.124Z,90718.56
2023-01-31T12:46:28.149Z,90719.19
2023-01-31T12:49:00.798Z,90703.41
2023-01-31T12:51:45.727Z,90716.59
2023-01-31T12:54:18.152Z,90722.84
2023-01-31T12:56:44.757Z,90717.66
2023-01-31T12:59:42.257Z,90727.16
2023-01-31T13:02:08.925Z,90735.19
2023-01-31T13:04:44.017Z,90742.97
2023-01-31T13:07:36.908Z,90750.63
2023-01-31T13:10:08.155Z,90752.56
2023-01-31T13:12:36.803Z,90745.66
2023-01-31T13:15:08.526Z,90754.72
2023-01-31T13:17:40.590Z,90746.72
2023-01-31T13:20:19.134Z,90746.94
2023-01-31T13:22:54.739Z,90752.13
2023-01-31T13:25:51.614Z,90752.47
2023-01-31T13:28:26.446Z,90758.22
2023-01-31T13:30:56.828Z,90745.47
2023-01-31T13:33:23.579Z,90719.03
2023-01-31T13:36:32.353Z,90728.88
2023-01-31T13:39:06.287Z,90742.22
2023-01-31T13:41:34.827Z,90741.72
2023-01-31T13:44:02.424Z,90734.84
2023-01-31T13:46:39.079Z,90742.97
2023-01-31T13:49:18.321Z,90740.53
2023-01-31T13:51:52.825Z,90742.28
2023-01-31T13:54:31.489Z,90745.63
2023-01-31T13:57:00.392Z,90740.31
2023-01-31T13:59:31.414Z,90743.63
2023-01-31T14:02:01.069Z,90751.09
2023-01-31T14:04:33.857Z,90749.91
2023-01-31T14:07:02.848Z,90741.59
2023-01-31T14:09:31.433Z,90746.25
2023-01-31T14:12:01.066Z,90747.13
2023-01-31T14:14:37.493Z,90749.03
2023-01-31T14:17:06.806Z,90739.38
2023-01-31T14:19:42.868Z,90747.75
2023-01-31T14:22:17.057Z,90750.66
2023-01-31T14:24:46.799Z,90754.00
2023-01-31T14:27:28.160Z,90755.50
2023-01-31T14:30:06.664Z,90755.69
2023-01-31T14:32:44.991Z,90761.09
2023-01-31T14:35:14.766Z,90763.13
2023-01-31T14:38:06.312Z,90761.88
2023-01-31T14:41:06.430Z,90762.47
2023-01-31T14:43:57.950Z,90759.03
2023-01-31T14:46:44.913Z,90768.03
2023-01-31T14:49:46.792Z,90767.50
2023-01-31T14:53:07.077Z,90771.88
2023-01-31T14:56:06.457Z,90770.94
2023-01-31T14:58:36.012Z,90776.59
2023-01-31T15:01:07.661Z,90758.22
2023-01-31T15:03:38.121Z,90764.38
2023-01-31T15:06:11.665Z,90762.34
2023-01-31T15:08:44.827Z,90766.75
2023-01-31T15:11:41.427Z,90770.47
2023-01-31T15:14:36.541Z,90764.22
2023-01-31T15:17:27.651Z,90761.56
2023-01-31T15:20:24.289Z,90756.22
2023-01-31T15:22:55.298Z,90753.72
2023-01-31T15:25:24.893Z,90760.13
2023-01-31T15:27:55.017Z,90768.03
2023-01-31T15:30:22.969Z,90770.56
2023-01-31T15:33:02.111Z,90776.72
2023-01-31T15:35:47.331Z,90778.34
2023-01-31T15:38:34.478Z,90780.09
2023-01-31T15:41:23.374Z,90790.28
2023-01-31T15:44:10.071Z,90796.78
2023-01-31T15:46:36.931Z,90795.59
2023-01-31T15:49:37.937Z,90787.38
2023-01-31T15:52:11.494Z,90803.53
2023-01-31T15:54:38.836Z,90810.44
2023-01-31T15:57:11.221Z,90814.28
2023-01-31T15:59:38.042Z,90806.72
2023-01-31T16:02:12.144Z,90822.00
2023-01-31T16:04:40.538Z,90822.91
2023-01-31T16:07:07.472Z,90826.53
2023-01-31T16:09:34.602Z,90822.28
2023-01-31T16:12:02.763Z,90828.78
2023-01-31T16:14:30.258Z,90825.16
2023-01-31T16:16:59.004Z,90839.38
2023-01-31T16:19:35.323Z,90831.31
2023-01-31T16:22:02.660Z,90830.00
2023-01-31T16:24:29.654Z,90826.13
2023-01-31T16:27:03.542Z,90838.03
2023-01-31T16:29:40.906Z,90838.03
2023-01-31T16:32:22.007Z,90847.91
2023-01-31T16:35:00.576Z,90835.09
2023-01-31T16:37:39.078Z,90837.69
2023-01-31T16:40:06.097Z,90843.47
2023-01-31T16:42:35.292Z,90833.75
2023-01-31T16:45:03.290Z,90841.03
2023-01-31T16:47:29.972Z,90828.38
2023-01-31T16:50:15.461Z,90857.75
2023-01-31T16:52:43.423Z,90858.22
2023-01-31T16:55:23.898Z,90856.88
2023-01-31T16:57:50.871Z,90867.06
2023-01-31T17:00:25.719Z,90859.78
2023-01-31T17:02:54.919Z,90861.16
2023-01-31T17:05:39.535Z,90873.59
2023-01-31T17:08:14.068Z,90876.16
2023-01-31T17:10:41.404Z,90878.78
2023-01-31T17:13:19.081Z,90879.06
2023-01-31T17:15:46.112Z,90884.94
2023-01-31T17:18:12.874Z,90880.91
2023-01-31T17:20:41.995Z,90887.13
2023-01-31T17:23:11.207Z,90883.31
2023-01-31T17:25:37.993Z,90878.00
2023-01-31T17:28:05.944Z,90883.00
2023-01-31T17:30:34.074Z,90887.69
2023-01-31T17:33:01.539Z,90877.66
2023-01-31T17:35:43.289Z,90888.31
2023-01-31T17:38:10.039Z,90895.56
2023-01-31T17:40:39.952Z,90882.53
2023-01-31T17:43:06.693Z,90875.13
2023-01-31T17:45:33.428Z,90898.44
2023-01-31T17:48:00.203Z,90893.28
2023-01-31T17:50:28.584Z,90893.56
2023-01-31T17:52:56.282Z,90898.16
2023-01-31T17:55:25.108Z,90893.44
2023-01-31T17:57:52.299Z,90898.00
2023-01-31T18:00:20.529Z,90899.06
2023-01-31T18:02:47.918Z,90909.66
2023-01-31T18:05:20.210Z,90921.19
2023-01-31T18:07:49.872Z,90925.28
2023-01-31T18:10:17.657Z,90933.91
2023-01-31T18:12:45.092Z,90926.81
2023-01-31T18:15:12.459Z,90925.09
2023-01-31T18:17:39.190Z,90936.44
2023-01-31T18:20:06.539Z,90939.97
2023-01-31T18:22:33.255Z,90942.00
2023-01-31T18:24:59.938Z,90944.41
2023-01-31T18:27:26.690Z,90949.25
2023-01-31T18:29:55.935Z,90947.28
2023-01-31T18:32:22.626Z,90944.56
2023-01-31T18:34:49.501Z,90947.59
2023-01-31T18:37:20.328Z,90949.41
2023-01-31T18:39:51.713Z,90945.91
2023-01-31T18:42:19.910Z,90950.63
2023-01-31T18:44:47.180Z,90922.13
2023-01-31T18:47:15.169Z,90943.19
2023-01-31T18:49:42.481Z,90948.19
2023-01-31T18:52:09.422Z,90948.50
2023-01-31T18:54:37.626Z,90942.44
2023-01-31T18:57:05.069Z,90939.13
2023-01-31T18:59:33.779Z,90951.53
2023-01-31T19:02:01.149Z,90947.56
2023-01-31T19:04:27.891Z,90938.31
2023-01-31T19:06:57.017Z,90948.03
2023-01-31T19:09:23.838Z,90951.06
2023-01-31T19:11:51.127Z,90953.34
2023-01-31T19:14:18.160Z,90966.84
2023-01-31T19:16:45.275Z,90961.22
2023-01-31T19:19:12.783Z,90957.31
2023-01-31T19:21:40.093Z,90965.59
2023-01-31T19:24:11.377Z,90973.50
2023-01-31T19:26:40.409Z,90968.19
2023-01-31T19:29:09.714Z,90964.09
2023-01-31T19:31:36.732Z,90956.69
2023-01-31T19:34:06.385Z,90972.72
2023-01-31T19:36:38.902Z,90979.41
2023-01-31T19:39:10.356Z,90981.84
2023-01-31T19:41:37.236Z,90981.53
2023-01-31T19:44:04.696Z,90994.84
2023-01-31T19:46:33.782Z,90986.81
2023-01-31T19:49:00.973Z,90980.13
2023-01-31T19:51:28.331Z,90990.28
2023-01-31T19:54:01.460Z,90966.59
2023-01-31T19:56:28.954Z,90992.22
2023-01-31T19:58:56.312Z,91000.69
2023-01-31T20:01:23.744Z,91003.66
2023-01-31T20:03:50.889Z,90980.66
2023-01-31T20:06:20.908Z,91008.97
2023-01-31T20:08:59.133Z,91009.94
2023-01-31T20:11:27.900Z,91009.44
2023-01-31T20:13:57.389Z,90999.41
2023-01-31T20:16:24.697Z,91011.78
2023-01-31T20:18:51.469Z,91018.31
2023-01-31T20:21:20.891Z,91019.72
2023-01-31T20:23:49.376Z,91010.31
2023-01-31T20:26:18.504Z,91024.00
2023-01-31T20:28:45.602Z,91021.09
2023-01-31T20:31:14.602Z,91017.63
2023-01-31T20:33:41.363Z,91014.19
2023-01-31T20:36:08.587Z,91017.25
2023-01-31T20:38:38.722Z,91023.16
2023-01-31T20:41:08.550Z,91032.00
2023-01-31T20:43:35.979Z,91034.03
2023-01-31T20:46:11.238Z,91027.41
2023-01-31T20:48:39.025Z,91030.72
2023-01-31T20:51:06.844Z,91040.19
2023-01-31T20:53:33.763Z,91043.25
2023-01-31T20:56:03.107Z,91041.38
2023-01-31T20:58:34.695Z,91038.91
2023-01-31T21:01:05.481Z,91043.66
2023-01-31T21:03:33.348Z,91042.56
2023-01-31T21:06:01.152Z,91048.38
2023-01-31T21:08:29.559Z,91053.97
2023-01-31T21:10:58.034Z,91054.59
2023-01-31T21:13:31.711Z,91064.63
2023-01-31T21:16:01.893Z,91061.56
2023-01-31T21:18:31.638Z,91053.28
2023-01-31T21:20:59.165Z,91054.47
2023-01-31T21:23:25.941Z,91064.25
2023-01-31T21:25:52.829Z,91056.16
2023-01-31T21:28:19.589Z,91059.00
2023-01-31T21:30:56.538Z,91052.59
2023-01-31T21:33:23.414Z,91060.44
2023-01-31T21:35:52.062Z,91068.84
2023-01-31T21:38:18.751Z,91072.44
2023-01-31T21:40:45.439Z,91070.22
2023-01-31T21:43:12.324Z,91075.09
2023-01-31T21:45:41.858Z,91061.41
2023-01-31T21:48:29.543Z,91076.22
2023-01-31T21:50:57.491Z,91079.56
2023-01-31T21:53:24.827Z,91084.16
2023-01-31T21:56:01.038Z,91075.97
2023-01-31T21:58:27.794Z,91074.50
2023-01-31T22:00:54.608Z,91071.41
2023-01-31T22:03:21.334Z,91059.38
2023-01-31T22:05:48.063Z,91067.38
2023-01-31T22:08:14.841Z,91067.66
2023-01-31T22:10:41.768Z,91065.97
2023-01-31T22:13:08.632Z,91066.38
2023-01-31T22:15:35.639Z,91073.50
2023-01-31T22:18:02.366Z,91078.00
2023-01-31T22:20:29.054Z,91078.97
2023-01-31T22:22:55.797Z,91073.28
2023-01-31T22:25:22.763Z,91073.72
2023-01-31T22:27:51.691Z,91076.75
2023-01-31T22:30:18.532Z,91073.56
2023-01-31T22:32:45.325Z,91069.84
2023-01-31T22:35:12.104Z,91074.03
2023-01-31T22:37:38.807Z,91083.28
2023-01-31T22:40:06.153Z,91079.84
2023-01-31T22:42:32.792Z,91072.63
2023-01-31T22:44:59.559Z,91059.47
2023-01-31T22:47:26.344Z,91061.53
2023-01-31T22:49:53.333Z,91065.34
2023-01-31T22:52:20.411Z,91067.63
2023-01-31T22:54:47.167Z,91068.44
2023-01-31T22:57:13.820Z,91071.81
2023-01-31T22:59:40.493Z,91061.78
2023-01-31T23:02:07.275Z,91066.00
2023-01-31T23:04:34.044Z,91062.00
2023-01-31T23:07:00.782Z,91054.59
2023-01-31T23:09:27.486Z,91046.41
2023-01-31T23:11:54.436Z,91067.16
2023-01-31T23:14:21.772Z,91059.63
2023-01-31T23:17:06.952Z,91062.13
2023-01-31T23:19:33.683Z,91052.50
2023-01-31T23:22:00.387Z,91053.84
2023-01-31T23:24:27.347Z,91058.59
2023-01-31T23:26:54.821Z,91055.34
2023-01-31T23:29:21.578Z,91050.41
2023-01-31T23:31:48.529Z,91054.13
2023-01-31T23:34:15.215Z,91055.91
2023-01-31T23:36:42.151Z,91062.66
2023-01-31T23:39:09.946Z,91060.66
2023-01-31T23:41:36.788Z,91069.03
2023-01-31T23:44:03.814Z,91063.50
2023-01-31T23:46:30.626Z,91065.91
2023-01-31T23:48:57.534Z,91042.59
2023-01-31T23:51:24.339Z,91068.19
2023-01-31T23:53:51.210Z,91071.59
2023-01-31T23:56:17.934Z,91080.34
2023-01-31T23:58:46.104Z,91069.03
